Time;durP1;ratioP1;P1;durP2;ratioP2;P2;SDS_P1;SDS_P2;PMS_P1;PMS_P2;Temp;Humidity;BMP_temperature;BMP_pressure;BME280_temperature;BME280_humidity;BME280_pressure;Samples;Min_cycle;Max_cycle;Signal;HPM_P1;HPM_P2
2023/06/22 00:01:23;;;;;;;3.88;3.40;;;18.20;99.90;;;17.63;100.00;101271.44;4168854;28;20492;-76
2023/06/22 00:03:25;;;;;;;5.72;3.15;;;18.20;99.90;;;17.62;100.00;101270.59;4168779;28;20025;-76
2023/06/22 00:05:27;;;;;;;4.72;3.53;;;18.10;99.90;;;17.67;100.00;101281.56;4200783;28;20484;-76
2023/06/22 00:07:27;;;;;;;6.25;3.90;;;18.10;99.90;;;17.59;100.00;101276.31;4168643;28;20036;-76
2023/06/22 00:09:28;;;;;;;6.75;3.38;;;18.10;99.90;;;17.60;100.00;101280.66;4168856;28;20504;-76
2023/06/22 00:11:31;;;;;;;5.22;4.32;;;18.10;99.90;;;17.52;100.00;101271.91;4168753;28;20014;-76
2023/06/22 00:13:32;;;;;;;5.10;3.50;;;18.10;99.90;;;17.61;100.00;101278.81;4168667;28;20021;-76
2023/06/22 00:15:34;;;;;;;6.47;3.63;;;18.10;99.90;;;17.61;100.00;101282.31;4168592;28;20036;-76
2023/06/22 00:17:34;;;;;;;7.70;3.92;;;18.00;99.90;;;17.57;100.00;101278.34;4168842;28;20105;-76
2023/06/22 00:19:35;;;;;;;6.90;4.20;;;18.10;99.90;;;17.56;100.00;101281.22;4183369;28;20056;-76
2023/06/22 00:21:37;;;;;;;6.35;4.15;;;18.10;99.90;;;17.48;100.00;101257.28;4185022;28;20032;-76
2023/06/22 00:23:38;;;;;;;5.53;3.60;;;18.00;99.90;;;17.44;100.00;101261.34;4184907;28;20025;-76
2023/06/22 00:25:42;;;;;;;6.18;3.80;;;18.00;99.90;;;17.45;100.00;101263.81;4167514;28;20036;-76
2023/06/22 00:27:42;;;;;;;4.80;3.75;;;18.00;99.90;;;17.43;100.00;101259.69;4185066;28;20040;-76
2023/06/22 00:29:43;;;;;;;7.55;3.80;;;18.00;99.90;;;17.42;100.00;101261.53;4184809;28;20029;-76
2023/06/22 00:31:44;;;;;;;5.28;3.40;;;18.00;99.90;;;17.36;100.00;101251.59;4183963;28;20024;-76
2023/06/22 00:33:45;;;;;;;7.43;3.88;;;17.90;99.90;;;17.39;100.00;101267.22;4167488;28;20025;-76
2023/06/22 00:35:46;;;;;;;5.53;3.63;;;17.90;99.90;;;17.37;100.00;101263.09;4167476;28;20021;-76
2023/06/22 00:37:47;;;;;;;6.10;4.13;;;17.90;99.90;;;17.30;100.00;101249.69;4185187;28;20029;-76
2023/06/22 00:39:47;;;;;;;7.22;4.07;;;17.90;99.90;;;17.29;100.00;101261.41;4184876;28;20040;-76
2023/06/22 00:41:48;;;;;;;4.63;3.78;;;17.90;99.90;;;17.33;100.00;101265.31;4184396;28;20078;-76
2023/06/22 00:43:49;;;;;;;7.25;4.70;;;17.80;99.90;;;17.34;100.00;101272.31;4183844;28;20090;-76
2023/06/22 00:45:50;;;;;;;7.95;4.32;;;17.80;99.90;;;17.29;100.00;101260.56;4185019;28;20029;-76
2023/06/22 00:47:53;;;;;;;6.30;4.00;;;17.80;99.90;;;17.21;100.00;101253.47;4184811;28;20461;-76
2023/06/22 00:49:54;;;;;;;6.03;3.85;;;17.80;99.90;;;17.16;100.00;101247.88;4167437;28;20108;-76
2023/06/22 00:51:57;;;;;;;6.18;4.00;;;17.80;99.90;;;17.17;100.00;101261.00;4167189;28;20029;-76
2023/06/22 00:53:58;;;;;;;5.57;3.78;;;17.70;99.90;;;17.29;100.00;101276.56;4167439;28;20079;-76
2023/06/22 00:55:59;;;;;;;7.63;4.25;;;17.70;99.90;;;17.19;100.00;101262.69;4184842;28;20056;-76
2023/06/22 00:58:00;;;;;;;6.10;4.40;;;17.70;99.90;;;17.20;100.00;101259.84;4183636;28;20064;-76
2023/06/22 01:00:11;;;;;;;8.65;4.53;;;17.70;99.90;;;17.15;100.00;101248.88;4184683;28;20033;-76
2023/06/22 01:02:12;;;;;;;6.85;4.50;;;17.70;99.90;;;17.10;100.00;101248.63;4187682;28;20025;-76
2023/06/22 01:04:13;;;;;;;7.00;3.88;;;17.70;99.90;;;17.07;100.00;101251.66;4188147;28;20029;-76
2023/06/22 01:06:29;;;;;;;6.72;4.75;;;17.70;99.90;;;17.11;100.00;101260.97;4188044;28;20029;-76
2023/06/22 01:08:44;;;;;;;6.97;4.28;;;17.70;99.90;;;17.13;100.00;101267.75;4170810;28;20550;-76
2023/06/22 01:10:59;;;;;;;5.78;4.43;;;17.60;99.90;;;17.06;100.00;101255.34;4170804;28;20033;-76
2023/06/22 01:13:15;;;;;;;6.57;4.28;;;17.60;99.90;;;17.02;100.00;101251.41;4181358;28;20028;-76
2023/06/22 01:15:31;;;;;;;5.05;3.58;;;17.60;99.90;;;16.98;100.00;101252.78;4154593;28;20029;-76
2023/06/22 01:17:32;;;;;;;5.03;4.40;;;17.60;99.90;;;16.98;100.00;101255.44;4170333;28;20411;-76
2023/06/22 01:19:54;;;;;;;5.07;4.15;;;17.50;99.90;;;17.06;100.00;101264.16;4153482;28;20042;-76
2023/06/22 01:21:58;;;;;;;9.05;4.85;;;17.50;99.90;;;17.03;100.00;101269.03;4171347;28;20037;-76
2023/06/22 01:24:23;;;;;;;7.65;4.70;;;17.50;99.90;;;17.03;100.00;101266.38;4170340;28;20044;-76
2023/06/22 01:26:58;;;;;;;8.98;4.93;;;17.50;99.90;;;16.99;100.00;101262.44;4171062;28;20578;-76
2023/06/22 01:29:00;;;;;;;;;;;17.50;99.90;;;16.85;100.00;101249.94;4172743;28;20119;-75
2023/06/22 01:31:05;;;;;;;6.53;4.35;;;17.50;99.90;;;16.90;100.00;101258.22;4170118;28;19976;-76
2023/06/22 01:33:06;;;;;;;5.90;4.43;;;17.50;99.90;;;16.89;100.00;101251.22;4202524;28;20038;-76
2023/06/22 01:35:10;;;;;;;9.05;4.70;;;17.50;99.90;;;16.92;100.00;101261.50;4169272;28;20065;-76
2023/06/22 01:37:13;;;;;;;6.93;4.32;;;17.40;99.90;;;16.84;100.00;101254.47;4170258;28;20027;-76
2023/06/22 01:39:15;;;;;;;7.90;4.55;;;17.40;99.90;;;16.82;100.00;101252.97;4187482;28;20033;-76
2023/06/22 01:41:17;;;;;;;9.05;5.03;;;17.40;99.90;;;16.87;100.00;101258.59;4170099;28;20432;-75
2023/06/22 01:43:23;;;;;;;6.10;4.30;;;17.40;99.90;;;16.84;100.00;101250.97;4202806;28;20035;-76
2023/06/22 01:45:25;;;;;;;5.50;4.25;;;17.40;99.90;;;16.75;100.00;101247.56;4170158;28;20398;-76
2023/06/22 01:47:27;;;;;;;6.53;4.55;;;17.40;99.90;;;16.89;100.00;101270.72;4153464;28;20448;-75
2023/06/22 01:49:29;;;;;;;8.23;5.10;;;17.40;99.90;;;16.78;100.00;101255.19;4184246;28;20025;-76
2023/06/22 01:51:30;;;;;;;7.60;4.47;;;17.40;99.90;;;16.78;100.00;101251.69;4155598;28;20025;-76
2023/06/22 01:53:31;;;;;;;7.97;4.88;;;17.40;99.90;;;16.72;100.00;101244.44;4169487;28;20045;-75
2023/06/22 01:55:32;;;;;;;5.15;4.45;;;17.40;99.90;;;16.74;100.00;101243.22;4187392;28;20078;-76
2023/06/22 01:57:33;;;;;;;6.45;4.72;;;17.30;99.90;;;16.86;100.00;101254.25;4187108;28;20396;-76
2023/06/22 02:00:04;;;;;;;7.10;4.50;;;17.40;99.90;;;16.84;100.00;101257.13;4153121;28;20030;-76
2023/06/22 02:02:08;;;;;;;6.32;4.70;;;17.30;99.90;;;16.75;100.00;101236.91;4169508;28;20033;-75
2023/06/22 02:04:20;;;;;;;6.55;4.53;;;17.30;99.90;;;16.66;100.00;101230.00;4202348;28;20530;-76
2023/06/22 02:06:29;;;;;;;6.25;4.65;;;17.30;99.90;;;16.65;100.00;101228.34;4170478;28;20029;-76
2023/06/22 02:08:55;;;;;;;6.57;4.43;;;17.30;99.90;;;16.70;100.00;101219.78;4170162;28;20021;-76
2023/06/22 02:10:59;;;;;;;7.53;4.28;;;17.20;99.90;;;16.74;100.00;101237.91;4169863;28;20503;-75
2023/06/22 02:13:03;;;;;;;;;;;17.30;99.90;;;16.69;100.00;101237.63;4185321;28;20113;-75
2023/06/22 02:15:05;;;;;;;6.57;4.43;;;17.30;99.90;;;16.71;100.00;101240.09;4163480;28;19916;-76
2023/06/22 02:17:09;;;;;;;5.93;4.50;;;17.20;99.90;;;16.75;100.00;101236.91;4169297;28;20029;-76
2023/06/22 02:19:10;;;;;;;5.78;4.30;;;17.20;99.90;;;16.68;100.00;101227.16;4169200;28;20528;-75
2023/06/22 02:21:10;;;;;;;6.55;4.50;;;17.20;99.90;;;16.64;100.00;101224.03;4169208;28;20087;-75
2023/06/22 02:23:11;;;;;;;6.35;4.43;;;17.20;99.90;;;16.64;100.00;101225.84;4186760;28;20096;-76
2023/06/22 02:25:12;;;;;;;6.82;4.78;;;17.20;99.90;;;16.69;100.00;101236.81;4185702;28;20477;-76
2023/06/22 02:27:13;;;;;;;7.93;4.93;;;17.20;99.90;;;16.64;100.00;101221.34;4169110;28;20100;-76
2023/06/22 02:29:14;;;;;;;6.18;4.90;;;17.20;99.90;;;16.58;100.00;101219.44;4186640;28;20025;-76
2023/06/22 02:31:15;;;;;;;7.53;5.60;;;17.20;99.90;;;16.66;100.00;101232.69;4169280;28;20026;-76
2023/06/22 02:33:16;;;;;;;6.35;4.28;;;17.20;99.90;;;16.55;100.00;101215.28;4186608;28;20025;-76
2023/06/22 02:35:17;;;;;;;6.35;4.28;;;17.20;99.90;;;16.66;100.00;101229.19;4186730;28;20057;-76
2023/06/22 02:37:18;;;;;;;6.65;4.43;;;17.10;99.90;;;16.64;100.00;101228.50;4168870;28;20489;-76
2023/06/22 02:39:24;;;;;;;7.38;4.50;;;17.10;99.90;;;16.66;100.00;101234.50;4168952;28;20060;-75
2023/06/22 02:41:25;;;;;;;6.47;5.15;;;17.10;99.90;;;16.52;100.00;101212.97;4186413;28;20036;-76
2023/06/22 02:43:26;;;;;;;6.63;4.65;;;17.10;99.90;;;16.63;100.00;101229.53;4168468;28;20025;-76
2023/06/22 02:45:27;;;;;;;7.97;4.60;;;17.10;99.90;;;16.61;100.00;101236.91;4169030;28;20036;-75
2023/06/22 02:47:28;;;;;;;5.35;4.38;;;17.10;99.90;;;16.51;100.00;101222.00;4168755;28;20025;-76
2023/06/22 02:49:29;;;;;;;5.88;4.57;;;17.10;99.90;;;16.58;100.00;101233.56;4186453;28;20090;-76
2023/06/22 02:51:34;;;;;;;11.27;5.30;;;17.10;99.90;;;16.60;100.00;101233.41;4173141;28;20025;-76
2023/06/22 02:53:35;;;;;;;7.75;4.88;;;17.10;99.90;;;16.58;100.00;101244.22;4186330;28;20032;-76
2023/06/22 02:55:36;;;;;;;6.90;5.18;;;17.10;99.90;;;16.49;100.00;101223.16;4186135;28;20032;-76
2023/06/22 02:57:37;;;;;;;9.85;5.13;;;17.10;99.90;;;16.52;100.00;101234.28;4186235;28;20108;-76
2023/06/22 02:59:40;;;;;;;7.38;5.15;;;17.10;99.90;;;16.47;100.00;101228.69;4201501;28;20032;-76
2023/06/22 03:01:41;;;;;;;8.27;5.57;;;17.00;99.90;;;16.44;100.00;101236.19;4185391;28;20033;-75
2023/06/22 03:03:42;;;;;;;8.27;4.80;;;17.00;99.90;;;16.52;100.00;101244.09;4168768;28;20036;-76
2023/06/22 03:05:43;;;;;;;7.97;4.82;;;17.00;99.90;;;16.49;100.00;101250.63;4201458;28;20480;-76
2023/06/22 03:07:45;;;;;;;8.05;4.57;;;17.00;99.90;;;16.36;100.00;101236.28;4186429;28;20028;-76
2023/06/22 03:09:46;;;;;;;6.93;4.65;;;17.00;99.90;;;16.34;100.00;101232.97;4186223;28;20474;-76
2023/06/22 03:11:47;;;;;;;6.07;4.20;;;17.00;99.90;;;16.43;100.00;101245.19;4186338;28;20025;-76
2023/06/22 03:13:48;;;;;;;6.18;4.68;;;17.00;99.90;;;16.45;100.00;101252.00;4185758;28;20032;-76
2023/06/22 03:15:49;;;;;;;6.90;5.03;;;16.90;99.90;;;16.36;100.00;101241.63;4186092;28;20516;-76
2023/06/22 03:17:49;;;;;;;5.80;4.30;;;16.90;99.90;;;16.42;100.00;101248.88;4168524;28;20110;-76
2023/06/22 03:19:50;;;;;;;7.78;4.53;;;16.90;99.90;;;16.38;100.00;101236.94;4168466;28;20033;-76
2023/06/22 03:21:51;;;;;;;5.78;4.03;;;16.90;99.90;;;16.43;100.00;101248.69;4153217;28;20489;-76
2023/06/22 03:23:52;;;;;;;8.43;5.05;;;16.90;99.90;;;16.35;100.00;101248.78;4169391;28;20083;-76
2023/06/22 03:25:55;;;;;;;5.55;4.35;;;16.90;99.90;;;16.33;100.00;101261.44;4168249;28;20396;-76
2023/06/22 03:27:56;;;;;;;4.65;3.90;;;16.90;99.90;;;16.25;100.00;101240.19;4169338;28;20400;-76
2023/06/22 03:29:57;;;;;;;10.60;5.07;;;16.80;99.90;;;16.26;100.00;101249.84;4167818;28;20026;-76
2023/06/22 03:31:58;;;;;;;7.15;4.20;;;16.80;99.90;;;16.24;100.00;101243.91;4169370;28;20029;-76
2023/06/22 03:33:59;;;;;;;6.28;4.50;;;16.80;99.90;;;16.26;100.00;101259.66;4167913;28;20048;-76
2023/06/22 03:36:00;;;;;;;7.85;4.70;;;16.80;99.90;;;16.32;100.00;101265.09;4169376;28;20036;-76
2023/06/22 03:38:01;;;;;;;7.57;3.92;;;16.80;99.90;;;16.28;100.00;101266.47;4168016;28;20067;-76
2023/06/22 03:40:06;;;;;;;8.05;5.22;;;16.80;99.90;;;16.20;100.00;101252.41;4169228;28;20041;-76
2023/06/22 03:42:08;;;;;;;6.70;4.32;;;16.80;99.90;;;16.21;100.00;101256.72;4184561;28;20070;-76
2023/06/22 03:44:12;;;;;;;5.03;4.28;;;16.80;99.90;;;16.23;100.00;101266.19;4167740;28;20108;-76
2023/06/22 03:46:13;;;;;;;8.88;4.13;;;16.80;99.90;;;16.29;100.00;101270.78;4168906;28;20030;-76
2023/06/22 03:48:14;;;;;;;6.40;4.43;;;16.80;99.90;;;16.24;100.00;101261.69;4169097;28;20029;-76
2023/06/22 03:50:14;;;;;;;7.97;4.20;;;16.80;99.90;;;16.15;100.00;101252.13;4169086;28;20111;-76
2023/06/22 03:52:15;;;;;;;5.18;4.30;;;16.80;99.90;;;16.18;100.00;101263.25;4167884;28;20400;-76
2023/06/22 03:54:16;;;;;;;7.35;4.50;;;16.70;99.90;;;16.11;100.00;101251.66;4167873;28;20440;-76
2023/06/22 03:56:20;;;;;;;7.85;4.63;;;16.70;99.90;;;16.08;100.00;101260.00;4167927;28;20036;-75
2023/06/22 03:58:21;;;;;;;4.53;3.92;;;16.70;99.90;;;16.11;100.00;101262.28;4168708;28;20485;-76
2023/06/22 04:00:25;;;;;;;5.50;4.10;;;16.70;99.90;;;16.06;100.00;101259.34;4167690;28;20041;-76
2023/06/22 04:02:26;;;;;;;8.30;4.30;;;16.60;99.90;;;16.11;100.00;101272.09;4168557;28;20032;-76
2023/06/22 04:04:27;;;;;;;5.78;3.92;;;16.60;99.90;;;16.02;100.00;101263.38;4168948;28;20116;-76
2023/06/22 04:06:28;;;;;;;6.80;4.00;;;16.60;99.90;;;16.07;100.00;101276.97;4169043;28;20112;-76
2023/06/22 04:08:30;;;;;;;5.10;3.92;;;16.60;99.90;;;15.91;100.00;101258.47;4167620;28;20411;-76
2023/06/22 04:10:31;;;;;;;6.55;4.38;;;16.50;99.90;;;15.98;100.00;101275.38;4167496;28;20516;-76
2023/06/22 04:12:32;;;;;;;5.95;4.15;;;16.50;99.90;;;15.92;100.00;101270.75;4171901;28;20013;-76
2023/06/22 04:14:33;;;;;;;6.00;4.50;;;16.50;99.90;;;15.84;100.00;101268.16;4167380;28;20029;-76
2023/06/22 04:16:34;;;;;;;8.85;4.38;;;16.50;99.90;;;15.85;100.00;101273.31;4151262;28;20052;-76
2023/06/22 04:18:35;;;;;;;5.45;4.40;;;16.40;99.90;;;15.93;100.00;101286.56;4175085;28;20057;-76
2023/06/22 04:20:36;;;;;;;4.72;4.20;;;16.40;99.90;;;15.84;100.00;101266.34;4151270;28;20092;-76
2023/06/22 04:22:37;;;;;;;4.80;3.72;;;16.40;99.90;;;15.92;100.00;101279.56;4167516;28;20052;-76
2023/06/22 04:24:38;;;;;;;7.18;4.30;;;16.40;99.90;;;15.94;100.00;101288.22;4167520;28;20040;-76
2023/06/22 04:26:41;;;;;;;8.30;4.55;;;16.40;99.90;;;15.94;100.00;101292.72;4185055;28;20104;-76
2023/06/22 04:28:42;;;;;;;5.30;4.50;;;16.40;99.90;;;15.91;100.00;101285.09;4166891;28;20033;-77
2023/06/22 04:30:46;;;;;;;6.43;4.18;;;16.40;99.90;;;15.90;100.00;101276.25;4167455;28;20501;-76
2023/06/22 04:32:56;;;;;;;6.45;4.43;;;16.40;99.90;;;15.96;100.00;101288.03;4167471;28;20029;-76
2023/06/22 04:34:56;;;;;;;5.03;4.40;;;16.50;99.90;;;15.88;100.00;101261.50;4184882;28;20108;-76
2023/06/22 04:36:57;;;;;;;7.05;4.53;;;16.50;99.90;;;15.95;100.00;101276.56;4187877;28;20097;-76
2023/06/22 04:38:58;;;;;;;8.80;4.05;;;16.50;99.90;;;15.91;100.00;101269.13;4188581;28;20025;-76
2023/06/22 04:41:03;;;;;;;7.68;4.25;;;16.50;99.90;;;16.03;100.00;101286.31;4187107;28;20029;-76
2023/06/22 04:43:05;;;;;;;5.38;4.20;;;16.50;99.90;;;15.95;100.00;101270.41;4188583;28;20033;-76
2023/06/22 04:45:07;;;;;;;5.70;3.85;;;16.50;99.90;;;15.91;100.00;101271.78;4186783;28;20025;-76
2023/06/22 04:47:10;;;;;;;5.95;4.55;;;16.50;99.90;;;16.00;100.00;101276.03;4170725;28;20033;-76
2023/06/22 04:49:11;;;;;;;4.30;3.90;;;16.50;99.90;;;16.07;100.00;101290.25;4188478;28;20029;-76
2023/06/22 04:51:12;;;;;;;8.05;4.68;;;16.60;99.90;;;16.11;100.00;101296.06;4170480;28;20088;-76
2023/06/22 04:53:13;;;;;;;5.20;4.03;;;16.60;99.90;;;16.13;100.00;101296.72;4170622;28;20526;-76
2023/06/22 04:55:19;;;;;;;5.32;4.45;;;16.60;99.90;;;16.18;100.00;101299.69;4170595;28;20041;-76
2023/06/22 04:57:20;;;;;;;6.18;4.18;;;16.60;99.90;;;16.13;100.00;101276.25;4170591;28;20041;-76
2023/06/22 04:59:22;;;;;;;7.50;3.97;;;16.70;99.90;;;16.26;100.00;101286.28;4187864;28;20035;-76
2023/06/22 05:01:25;;;;;;;5.88;3.80;;;16.80;99.90;;;16.28;100.00;101277.13;4188385;28;20025;-76
2023/06/22 05:03:26;;;;;;;4.32;3.55;;;16.80;99.90;;;16.42;100.00;101280.84;4170246;28;20032;-76
2023/06/22 05:05:27;;;;;;;5.30;4.03;;;16.90;99.90;;;16.40;100.00;101288.97;4188046;28;20040;-76
2023/06/22 05:07:28;;;;;;;5.75;3.85;;;16.90;99.90;;;16.50;100.00;101294.91;4170076;28;20022;-76
2023/06/22 05:09:30;;;;;;;6.65;4.32;;;17.00;99.90;;;16.56;100.00;101310.19;4170378;28;20547;-76
2023/06/22 05:11:31;;;;;;;5.68;3.97;;;17.00;99.90;;;16.45;100.00;101291.13;4188022;28;20138;-76
2023/06/22 05:13:32;;;;;;;7.45;4.25;;;17.00;99.90;;;16.43;100.00;101291.28;4170081;28;20036;-76
2023/06/22 05:15:36;;;;;;;4.38;3.97;;;17.00;99.90;;;16.57;100.00;101309.19;4170193;28;20088;-76
2023/06/22 05:17:42;;;;;;;;;;;17.00;99.90;;;16.45;100.00;101293.78;4188315;28;20029;-76
2023/06/22 05:19:44;;;;;;;7.50;4.53;;;17.00;99.90;;;16.47;100.00;101303.25;4169854;28;19917;-76
2023/06/22 05:21:45;;;;;;;6.55;4.63;;;17.10;99.90;;;16.54;100.00;101314.88;4170041;28;20040;-76
2023/06/22 05:23:46;;;;;;;7.40;4.00;;;17.00;99.90;;;16.41;100.00;101295.97;4187858;28;20029;-76
2023/06/22 05:25:47;;;;;;;5.93;3.72;;;17.00;99.90;;;16.45;100.00;101297.28;4187834;28;20560;-76
2023/06/22 05:27:50;;;;;;;4.85;3.95;;;17.00;99.90;;;16.42;100.00;101296.81;4169877;28;20037;-76
2023/06/22 05:29:51;;;;;;;5.15;3.35;;;17.00;99.90;;;16.54;100.00;101311.38;4169911;28;20017;-76
2023/06/22 05:31:52;;;;;;;5.93;4.25;;;17.00;99.90;;;16.46;100.00;101293.59;4169752;28;20036;-76
2023/06/22 05:33:54;;;;;;;5.60;3.63;;;17.00;99.90;;;16.54;100.00;101311.38;4187627;28;20032;-76
2023/06/22 05:35:55;;;;;;;5.35;3.80;;;17.00;99.90;;;16.54;100.00;101304.22;4169893;28;20026;-76
2023/06/22 05:37:56;;;;;;;5.68;4.30;;;17.10;99.90;;;16.55;100.00;101300.53;4169979;28;20477;-76
2023/06/22 05:39:57;;;;;;;6.20;4.53;;;17.10;99.90;;;16.65;100.00;101304.78;4187415;28;20476;-76
2023/06/22 05:41:58;;;;;;;7.28;4.45;;;17.10;99.90;;;16.68;100.00;101301.75;4187553;28;20029;-76
2023/06/22 05:43:59;;;;;;;6.13;3.80;;;17.20;99.90;;;16.80;100.00;101310.94;4187221;28;20029;-76
2023/06/22 05:46:02;;;;;;;5.70;3.53;;;17.20;99.90;;;16.91;100.00;101319.31;4169945;28;20026;-76
2023/06/22 05:48:03;;;;;;;5.15;3.95;;;17.30;99.90;;;16.91;100.00;101307.81;4185783;28;20071;-76
2023/06/22 05:50:08;;;;;;;4.28;3.40;;;17.30;99.90;;;17.07;100.00;101312.97;4169649;28;20018;-76
2023/06/22 05:52:09;;;;;;;5.38;3.30;;;17.40;99.90;;;17.12;100.00;101300.75;4169544;28;20021;-76
2023/06/22 05:54:10;;;;;;;5.00;3.60;;;17.50;99.90;;;17.26;100.00;101296.44;4169648;28;20040;-76
2023/06/22 05:56:10;;;;;;;6.40;3.75;;;17.60;99.90;;;17.46;100.00;101310.81;4169602;28;20424;-76
2023/06/22 05:58:13;;;;;;;4.60;3.20;;;17.70;99.90;;;17.61;100.00;101310.81;4187068;28;20025;-76
2023/06/22 06:00:14;;;;;;;6.85;3.30;;;17.90;99.90;;;17.68;100.00;101309.88;4187293;28;20033;-76
2023/06/22 06:02:15;;;;;;;7.32;3.67;;;17.90;99.90;;;17.85;100.00;101314.97;4187172;28;20029;-76
2023/06/22 06:04:18;;;;;;;4.72;3.30;;;18.10;99.90;;;17.91;100.00;101311.56;4186935;28;20029;-76
2023/06/22 06:06:28;;;;;;;6.50;3.90;;;18.20;99.90;;;17.98;100.00;101310.59;4187163;28;20172;-76
2023/06/22 06:08:29;;;;;;;6.63;4.40;;;18.30;99.90;;;18.01;100.00;101298.75;4187278;28;20037;-76
2023/06/22 06:10:30;;;;;;;5.70;3.83;;;18.40;99.90;;;18.10;100.00;101297.56;4187047;28;20044;-76
2023/06/22 06:12:31;;;;;;;6.45;3.83;;;18.50;99.90;;;18.22;100.00;101317.38;4186917;28;20033;-76
2023/06/22 06:14:32;;;;;;;4.07;3.45;;;18.50;99.90;;;18.22;100.00;101310.22;4169158;28;20124;-76
2023/06/22 06:16:32;;;;;;;4.82;3.50;;;18.50;99.90;;;18.34;100.00;101302.50;4185788;28;20382;-76
2023/06/22 06:18:33;;;;;;;5.40;3.53;;;18.60;99.90;;;18.38;100.00;101309.13;4152604;28;20050;-76
2023/06/22 06:20:35;;;;;;;4.72;3.70;;;18.70;99.90;;;18.43;100.00;101303.22;4185639;28;20391;-76
2023/06/22 06:22:36;;;;;;;4.72;3.80;;;18.70;99.90;;;18.42;100.00;101305.06;4186809;28;20111;-76
2023/06/22 06:24:37;;;;;;;5.53;2.97;;;18.80;99.90;;;18.46;100.00;101310.81;4186880;28;20032;-76
2023/06/22 06:26:38;;;;;;;7.10;3.80;;;18.80;99.90;;;18.39;100.00;101299.28;4186789;28;20028;-76
2023/06/22 06:28:39;;;;;;;5.25;3.22;;;18.80;99.90;;;18.45;100.00;101309.19;4186692;28;20130;-76
2023/06/22 06:30:40;;;;;;;6.35;3.42;;;18.80;99.90;;;18.57;100.00;101329.88;4186785;28;20032;-76
2023/06/22 06:32:42;;;;;;;4.07;2.80;;;18.80;99.90;;;18.58;100.00;101323.50;4169064;28;20035;-76
2023/06/22 06:34:43;;;;;;;6.05;3.60;;;18.80;99.90;;;18.45;100.00;101314.53;4186640;28;20029;-76
2023/06/22 06:36:45;;;;;;;7.95;3.40;;;18.80;99.90;;;18.50;100.00;101330.81;4186648;28;20546;-76
2023/06/22 06:38:47;;;;;;;7.28;3.30;;;18.80;99.90;;;18.45;100.00;101328.72;4186898;28;20032;-76
2023/06/22 06:40:48;;;;;;;3.63;2.80;;;18.80;99.90;;;18.50;100.00;101334.31;4186867;28;20043;-76
2023/06/22 06:42:49;;;;;;;5.63;3.33;;;18.80;99.90;;;18.49;100.00;101343.34;4168762;28;20036;-76
2023/06/22 06:44:50;;;;;;;6.20;3.47;;;18.80;99.90;;;18.49;100.00;101338.00;4186154;28;20086;-76
2023/06/22 06:46:51;;;;;;;3.92;3.38;;;18.80;99.90;;;18.53;100.00;101349.13;4186613;28;20025;-76
2023/06/22 06:48:52;;;;;;;5.95;3.47;;;18.80;99.90;;;18.47;100.00;101337.34;4168742;28;20029;-76
2023/06/22 06:50:53;;;;;;;5.03;3.20;;;18.80;99.90;;;18.55;100.00;101342.59;4168771;28;20056;-76
2023/06/22 06:52:54;;;;;;;4.60;3.03;;;18.90;99.90;;;18.65;100.00;101353.78;4168601;28;20085;-76
2023/06/22 06:54:55;;;;;;;4.60;2.88;;;18.90;99.90;;;18.64;100.00;101357.44;4168951;28;20022;-76
2023/06/22 06:56:56;;;;;;;3.45;2.50;;;19.00;99.90;;;18.71;100.00;101346.81;4186317;28;20112;-76
2023/06/22 06:58:59;;;;;;;5.80;3.35;;;19.00;99.90;;;18.84;100.00;101348.78;4151713;28;20041;-76
2023/06/22 07:01:00;;;;;;;6.22;3.10;;;19.10;99.90;;;19.01;100.00;101350.94;4152126;28;20115;-76
2023/06/22 07:03:00;;;;;;;4.40;2.80;;;19.20;99.90;;;19.02;100.00;101349.09;4152226;28;20026;-76
2023/06/22 07:05:04;;;;;;;7.00;2.90;;;19.30;99.90;;;19.06;100.00;101359.19;4185133;28;20049;-76
2023/06/22 07:07:05;;;;;;;4.07;2.65;;;19.30;99.90;;;18.96;100.00;101339.19;4186096;28;20074;-76
2023/06/22 07:09:06;;;;;;;4.75;3.03;;;19.30;99.90;;;19.08;100.00;101359.00;4184512;28;20033;-76
2023/06/22 07:11:07;;;;;;;3.22;2.75;;;19.40;99.90;;;19.13;100.00;101359.25;4185886;28;20032;-76
2023/06/22 07:13:08;;;;;;;4.68;3.38;;;19.40;99.90;;;19.16;100.00;101370.38;4168167;28;20039;-76
2023/06/22 07:15:11;;;;;;;4.85;2.83;;;19.50;99.90;;;19.17;100.00;101365.84;4186212;28;20025;-76
2023/06/22 07:17:12;;;;;;;5.47;2.65;;;19.50;99.90;;;19.18;100.00;101362.97;4185871;28;20029;-76
2023/06/22 07:19:13;;;;;;;4.82;2.90;;;19.50;99.90;;;19.23;100.00;101371.22;4185852;28;20041;-76
2023/06/22 07:21:14;;;;;;;5.40;3.25;;;19.60;99.90;;;19.27;100.00;101364.47;4168372;28;20040;-76
2023/06/22 07:23:15;;;;;;;4.55;2.92;;;19.60;99.90;;;19.29;100.00;101369.63;4168218;28;20033;-76
2023/06/22 07:25:16;;;;;;;5.15;3.00;;;19.70;99.90;;;19.30;100.00;101363.25;4185753;28;20476;-76
2023/06/22 07:27:21;;;;;;;5.70;2.72;;;19.70;99.90;;;19.40;100.00;101377.13;4185867;28;20104;-76
2023/06/22 07:29:22;;;;;;;5.65;2.90;;;19.80;99.90;;;19.43;100.00;101360.66;4168340;28;20493;-76
2023/06/22 07:31:25;;;;;;;4.25;2.80;;;19.80;99.90;;;19.49;100.00;101372.44;4168185;28;20060;-76
2023/06/22 07:33:27;;;;;;;8.70;2.90;;;19.90;99.90;;;19.53;100.00;101369.16;4185578;28;20024;-76
2023/06/22 07:35:29;;;;;;;5.55;3.15;;;20.00;99.90;;;19.53;100.00;101363.00;4185760;28;20065;-76
2023/06/22 07:37:32;;;;;;;6.82;3.38;;;20.00;99.90;;;19.53;100.00;101374.53;4185693;28;20028;-76
2023/06/22 07:39:33;;;;;;;6.15;3.03;;;20.10;99.90;;;19.68;100.00;101369.81;4152013;28;20026;-76
2023/06/22 07:41:34;;;;;;;6.40;3.00;;;20.20;99.90;;;19.76;100.00;101383.06;4185536;28;20024;-76
2023/06/22 07:43:36;;;;;;;4.35;2.72;;;20.20;99.90;;;19.83;100.00;101397.28;4167830;28;20033;-76
2023/06/22 07:45:40;;;;;;;4.22;2.53;;;20.30;99.90;;;19.89;100.00;101383.09;4185582;28;20025;-76
2023/06/22 07:47:41;;;;;;;5.10;3.35;;;20.30;99.90;;;19.92;100.00;101389.91;4167938;28;20033;-76
2023/06/22 07:49:42;;;;;;;3.80;2.40;;;20.40;99.90;;;20.00;100.00;101376.34;4185501;28;20029;-76
2023/06/22 07:51:43;;;;;;;4.80;2.83;;;20.50;99.90;;;20.16;100.00;101377.81;4185539;28;20440;-76
2023/06/22 07:53:44;;;;;;;4.70;2.80;;;20.60;99.90;;;20.15;100.00;101381.50;4167682;28;20057;-76
2023/06/22 07:55:45;;;;;;;4.10;3.05;;;20.60;99.90;;;20.24;100.00;101372.25;4184473;28;20047;-76
2023/06/22 07:57:49;;;;;;;7.32;2.50;;;20.80;99.90;;;20.41;100.00;101390.44;4167642;28;20508;-76
2023/06/22 07:59:50;;;;;;;5.38;2.50;;;20.80;99.90;;;20.41;100.00;101392.31;4184122;28;20040;-76
2023/06/22 08:01:50;;;;;;;3.97;2.40;;;20.90;99.90;;;20.61;98.98;101405.75;4185043;28;20033;-76
2023/06/22 08:03:51;;;;;;;7.28;3.10;;;21.00;99.90;;;20.59;97.31;101378.28;4185300;28;20032;-76
2023/06/22 08:05:52;;;;;;;3.80;2.63;;;21.10;99.90;;;20.73;97.09;101383.44;4200481;28;20052;-76
2023/06/22 08:07:54;;;;;;;8.35;3.10;;;21.20;99.90;;;20.69;96.21;101384.91;4185307;28;20036;-76
2023/06/22 08:09:55;;;;;;;5.78;2.72;;;21.20;99.90;;;20.82;96.18;101389.41;4183699;28;20028;-76
2023/06/22 08:11:56;;;;;;;4.30;2.90;;;21.30;99.90;;;20.86;94.89;101394.19;4184763;28;20476;-76
2023/06/22 08:13:58;;;;;;;5.47;2.83;;;21.40;99.90;;;21.02;95.44;101402.84;4184854;28;20025;-76
2023/06/22 08:15:59;;;;;;;4.13;2.78;;;21.40;99.90;;;21.20;94.35;101411.94;4185253;28;20488;-76
2023/06/22 08:18:00;;;;;;;6.00;2.63;;;21.50;99.90;;;21.35;92.97;101415.19;4183929;28;20029;-76
2023/06/22 08:20:05;;;;;;;4.40;2.50;;;21.60;99.90;;;21.40;92.42;101398.44;4183820;28;20035;-76
2023/06/22 08:22:06;;;;;;;4.40;2.53;;;21.80;99.90;;;21.61;91.88;101414.28;4167718;28;20399;-76
2023/06/22 08:24:07;;;;;;;3.67;2.50;;;21.90;99.90;;;21.77;91.04;101410.31;4185224;28;20068;-76
2023/06/22 08:26:08;;;;;;;5.72;2.53;;;22.00;99.90;;;21.74;89.38;101419.63;4185071;28;20074;-76